createdAt,value
2019-02-11T00:04:15.395Z,53.9
2019-02-11T00:09:11.304Z,54.2
2019-02-11T00:14:07.246Z,54
2019-02-11T00:19:03.112Z,53.9
2019-02-11T00:23:58.885Z,54
2019-02-11T00:28:54.125Z,54
2019-02-11T00:33:50.183Z,54.6
2019-02-11T00:38:46.003Z,54.3
2019-02-11T00:43:41.821Z,54.4
2019-02-11T00:48:37.262Z,54.7
2019-02-11T00:53:33.076Z,54.4
2019-02-11T00:58:28.611Z,54.5
2019-02-11T01:03:24.514Z,54.3
2019-02-11T01:08:20.463Z,54.3
2019-02-11T01:13:15.869Z,54.2
2019-02-11T01:18:11.734Z,54
2019-02-11T01:23:07.603Z,53.8
2019-02-11T01:28:03.201Z,54.3
2019-02-11T01:32:58.884Z,54.5
2019-02-11T01:37:54.569Z,54.5
2019-02-11T01:42:50.489Z,54.3
2019-02-11T01:47:45.729Z,54.6
2019-02-11T01:52:41.480Z,54.6
2019-02-11T01:57:37.306Z,54.5
2019-02-11T02:02:33.298Z,54.7
2019-02-11T02:07:29.239Z,54.7
2019-02-11T02:12:25.115Z,54.6
2019-02-11T02:17:21.083Z,54.6
2019-02-11T02:22:17.048Z,54.8
2019-02-11T02:27:12.672Z,54.6
2019-02-11T02:32:08.546Z,54.9
2019-02-11T02:37:03.990Z,54.9
2019-02-11T02:42:00.053Z,54.8
2019-02-11T02:46:55.677Z,55.3
2019-02-11T02:51:51.524Z,55.1
2019-02-11T02:56:47.514Z,55.1
2019-02-11T03:01:43.316Z,54.6
2019-02-11T03:06:38.826Z,55
2019-02-11T03:11:34.577Z,54.7
2019-02-11T03:16:30.260Z,54.5
2019-02-11T03:21:26.200Z,54.5
2019-02-11T03:26:21.942Z,54.3
2019-02-11T03:31:17.722Z,54.6
2019-02-11T03:36:13.413Z,54.9
2019-02-11T03:41:09.149Z,54.9
2019-02-11T03:46:04.728Z,55.1
2019-02-11T03:51:00.334Z,55.4
2019-02-11T03:55:55.889Z,55.6
2019-02-11T04:00:51.610Z,55.4
2019-02-11T04:05:47.723Z,55.4
2019-02-11T04:10:43.728Z,55.5
2019-02-11T04:15:39.326Z,55.6
2019-02-11T04:20:35.095Z,56.2
2019-02-11T04:25:30.585Z,56.1
2019-02-11T04:30:26.570Z,56.4
2019-02-11T04:35:22.348Z,56.2
2019-02-11T04:40:18.220Z,56.2
2019-02-11T04:45:14.102Z,56.4
2019-02-11T04:50:09.910Z,56.6
2019-02-11T04:55:05.540Z,56.6
2019-02-11T05:00:01.585Z,56.6
2019-02-11T05:04:57.069Z,56.7
2019-02-11T05:09:53.416Z,56.6
2019-02-11T05:14:49.298Z,56.3
2019-02-11T05:19:45.130Z,57.3
2019-02-11T05:24:40.908Z,57.2
2019-02-11T05:29:36.778Z,57.1
2019-02-11T05:34:32.882Z,57.1
2019-02-11T05:39:28.488Z,57
2019-02-11T05:44:24.307Z,57.1
2019-02-11T05:49:20.866Z,57.1
2019-02-11T05:54:16.324Z,56.8
2019-02-11T05:59:12.148Z,56.7
2019-02-11T06:04:07.680Z,56.8
2019-02-11T06:09:03.539Z,56.8
2019-02-11T06:13:59.482Z,57.3
2019-02-11T06:18:55.593Z,57.3
2019-02-11T06:23:51.534Z,57
2019-02-11T06:28:47.415Z,57.4
2019-02-11T06:33:43.130Z,57.8
2019-02-11T06:38:39.143Z,57.1
2019-02-11T06:43:34.841Z,57.2
2019-02-11T06:48:30.672Z,58.1
2019-02-11T06:53:26.404Z,57.9
2019-02-11T06:58:22.431Z,57.8
2019-02-11T07:03:16.365Z,58
2019-02-11T07:08:12.338Z,58.2
2019-02-11T07:13:08.225Z,57.7
2019-02-11T07:18:04.144Z,57.9
2019-02-11T07:23:00.021Z,58
2019-02-11T07:27:55.572Z,57.7
2019-02-11T07:32:51.350Z,57.6
2019-02-11T07:37:47.271Z,57.3
2019-02-11T07:42:42.768Z,56.9
2019-02-11T07:47:38.865Z,56.2
2019-02-11T07:52:35.027Z,55.8
2019-02-11T07:57:30.979Z,56.1
2019-02-11T08:02:26.791Z,55.8
2019-02-11T08:07:22.548Z,55.6
2019-02-11T08:12:18.521Z,55.4
2019-02-11T08:17:14.242Z,55.2
2019-02-11T08:22:09.630Z,55.7
2019-02-11T08:27:05.186Z,55.8
2019-02-11T08:32:01.146Z,55.8
2019-02-11T08:36:57.151Z,55.5
2019-02-11T08:41:52.994Z,55.1
2019-02-11T08:46:48.904Z,54.8
2019-02-11T08:51:44.589Z,54.6
2019-02-11T08:56:40.485Z,54.4
2019-02-11T09:01:36.352Z,53.8
2019-02-11T09:06:32.074Z,53.2
2019-02-11T09:11:27.976Z,53.1
2019-02-11T09:16:23.706Z,53
2019-02-11T09:21:19.668Z,52.9
2019-02-11T09:26:15.742Z,53
2019-02-11T09:31:11.581Z,53
2019-02-11T09:36:07.434Z,52.5
2019-02-11T09:41:03.314Z,52.4
2019-02-11T09:46:03.828Z,52.8
2019-02-11T09:50:55.350Z,52.7
2019-02-11T09:55:51.297Z,52.4
2019-02-11T10:00:47.255Z,52.6
2019-02-11T10:05:43.112Z,52.6
2019-02-11T10:10:38.802Z,52.8
2019-02-11T10:15:34.809Z,53
2019-02-11T10:20:30.555Z,53
2019-02-11T10:25:26.566Z,52.9
2019-02-11T10:30:22.428Z,53.1
2019-02-11T10:35:18.348Z,53
2019-02-11T10:40:13.742Z,52.7
2019-02-11T10:45:09.533Z,52
2019-02-11T10:50:05.450Z,52.3
2019-02-11T10:55:01.348Z,52.4
2019-02-11T10:59:57.107Z,52.3
2019-02-11T11:04:52.372Z,52.2
2019-02-11T11:09:47.881Z,52.2
2019-02-11T11:14:44.025Z,52.2
2019-02-11T11:19:39.599Z,52.1
2019-02-11T11:24:35.501Z,52.4
2019-02-11T11:29:30.891Z,52
2019-02-11T11:34:26.759Z,52
2019-02-11T11:39:22.680Z,51.9
2019-02-11T11:44:18.883Z,52.4
2019-02-11T11:49:14.721Z,52.3
2019-02-11T11:54:10.607Z,52
2019-02-11T11:59:06.312Z,52
2019-02-11T12:04:06.147Z,52
2019-02-11T12:08:59.294Z,51.7
2019-02-11T12:13:54.495Z,51.7
2019-02-11T12:18:49.806Z,51.4
2019-02-11T12:23:45.235Z,51.4
2019-02-11T12:28:41.281Z,51.1
2019-02-11T12:33:37.512Z,51.1
2019-02-11T12:38:33.630Z,50.7
2019-02-11T12:43:29.585Z,50.3
2019-02-11T12:48:25.773Z,50.3
2019-02-11T12:53:21.854Z,50.1
2019-02-11T12:58:17.997Z,50
2019-02-11T13:03:14.406Z,49.7
2019-02-11T13:08:10.078Z,49.3
2019-02-11T13:13:07.229Z,48.9
2019-02-11T13:18:02.713Z,48.6
2019-02-11T13:22:58.361Z,48.8
2019-02-11T13:27:54.111Z,48.8
2019-02-11T13:32:50.197Z,48.2
2019-02-11T13:37:46.707Z,48
2019-02-11T13:42:42.822Z,48.2
2019-02-11T13:47:51.524Z,48.1
2019-02-11T13:52:34.593Z,48.4
2019-02-11T13:57:30.459Z,48.4
2019-02-11T14:02:26.446Z,48.3
2019-02-11T14:07:22.295Z,48
2019-02-11T14:12:18.415Z,48.5
2019-02-11T14:17:15.125Z,48.2
2019-02-11T14:22:11.162Z,48.8
2019-02-11T14:27:07.016Z,49.1
2019-02-11T14:32:03.162Z,49.3
2019-02-11T14:36:59.190Z,49.3
2019-02-11T14:41:55.236Z,49.1
2019-02-11T14:46:50.838Z,49.4
2019-02-11T14:51:46.900Z,49.3
2019-02-11T14:56:42.964Z,49.4
2019-02-11T15:01:39.020Z,49
2019-02-11T15:06:34.751Z,49
2019-02-11T15:11:30.639Z,49.1
2019-02-11T15:16:26.169Z,49
2019-02-11T15:21:22.270Z,48.8
2019-02-11T15:26:18.191Z,48.6
2019-02-11T15:31:14.197Z,48.8
2019-02-11T15:36:09.484Z,48.6
2019-02-11T15:41:05.731Z,48.8
2019-02-11T15:46:01.579Z,49
2019-02-11T15:50:57.494Z,48.8
2019-02-11T15:55:53.498Z,48.9
2019-02-11T16:00:49.742Z,48.8
2019-02-11T16:05:49.599Z,48
2019-02-11T16:10:41.780Z,48.1
2019-02-11T16:15:37.470Z,48
2019-02-11T16:20:33.645Z,48
2019-02-11T16:25:29.696Z,48.4
2019-02-11T16:30:25.839Z,48.4
2019-02-11T16:35:21.716Z,48
2019-02-11T16:40:17.716Z,47.4
2019-02-11T16:45:13.195Z,47.5
2019-02-11T16:50:09.690Z,48.2
2019-02-11T16:55:05.517Z,47.9
2019-02-11T17:00:01.608Z,47.9
2019-02-11T17:04:57.799Z,48.1
2019-02-11T17:09:57.489Z,48.1
2019-02-11T17:14:51.698Z,48.4
2019-02-11T17:19:47.699Z,48.6
2019-02-11T17:24:43.143Z,48.9
2019-02-11T17:29:39.079Z,49.1
2019-02-11T17:34:35.060Z,49.7
2019-02-11T17:39:31.038Z,49.9
2019-02-11T17:44:26.587Z,49.6
2019-02-11T17:49:22.629Z,49.5
2019-02-11T17:54:18.823Z,49.3
2019-02-11T17:59:14.896Z,49.1
2019-02-11T18:04:11.045Z,49.1
2019-02-11T18:09:07.245Z,48.5
2019-02-11T18:14:03.241Z,48
2019-02-11T18:18:59.355Z,48.2
2019-02-11T18:23:55.216Z,48.3
2019-02-11T18:28:51.137Z,47.8
2019-02-11T18:33:46.937Z,48.3
2019-02-11T18:38:42.912Z,48.1
2019-02-11T18:43:38.870Z,47.7
2019-02-11T18:48:34.934Z,48.2
2019-02-11T18:53:30.895Z,48.3
2019-02-11T18:58:27.109Z,48.7
2019-02-11T19:03:23.087Z,48.7
2019-02-11T19:08:19.077Z,48.8
2019-02-11T19:13:15.107Z,48.8
2019-02-11T19:18:11.071Z,49
2019-02-11T19:23:07.054Z,49.3
2019-02-11T19:28:03.197Z,50.3
2019-02-11T19:32:59.100Z,50.2
2019-02-11T19:37:55.297Z,50.6
2019-02-11T19:42:50.966Z,51
2019-02-11T19:47:47.228Z,50.4
2019-02-11T19:52:43.272Z,50.5
2019-02-11T19:57:39.348Z,50.5
2019-02-11T20:02:34.828Z,49.8
2019-02-11T20:07:31.156Z,50.3
2019-02-11T20:12:27.122Z,50.4
2019-02-11T20:17:23.141Z,50.1
2019-02-11T20:22:18.770Z,50.3
2019-02-11T20:27:14.801Z,49.4
2019-02-11T20:32:10.600Z,49.8
2019-02-11T20:37:06.618Z,50.2
2019-02-11T20:42:02.491Z,50.3
2019-02-11T20:46:58.423Z,49.7
2019-02-11T20:51:54.105Z,50.3
2019-02-11T20:56:50.104Z,50.9
2019-02-11T21:01:45.792Z,51.3
2019-02-11T21:06:41.816Z,51.8
2019-02-11T21:11:37.970Z,51.4
2019-02-11T21:16:34.514Z,54
2019-02-11T21:21:30.109Z,54
2019-02-11T21:26:25.851Z,54.3
2019-02-11T21:31:21.536Z,56.1
2019-02-11T21:36:17.081Z,56.9
2019-02-11T21:41:13.166Z,60.4
2019-02-11T21:46:08.942Z,61.9
2019-02-11T21:51:04.442Z,62.2
2019-02-11T21:55:59.848Z,63.8
2019-02-11T22:01:02.023Z,64.2
2019-02-11T22:05:51.418Z,62.4
2019-02-11T22:10:47.061Z,61.4
2019-02-11T22:15:43.116Z,60.3
2019-02-11T22:20:38.847Z,60
2019-02-11T22:25:34.729Z,59.7
2019-02-11T22:30:30.420Z,59.4
2019-02-11T22:35:26.186Z,59.3
2019-02-11T22:40:21.802Z,59.8
2019-02-11T22:45:17.747Z,60.4
2019-02-11T22:50:13.417Z,59.6
2019-02-11T22:55:09.374Z,59.1
2019-02-11T23:00:05.099Z,59.4
2019-02-11T23:05:01.213Z,59.8
2019-02-11T23:09:56.487Z,60.6
2019-02-11T23:14:52.518Z,58.3
2019-02-11T23:19:48.427Z,57.9
2019-02-11T23:24:44.390Z,58.1
2019-02-11T23:29:39.986Z,57.9
2019-02-11T23:34:35.855Z,57.7
2019-02-11T23:39:31.853Z,58.2
2019-02-11T23:44:27.927Z,58.5
2019-02-11T23:49:24.130Z,58
2019-02-11T23:54:20.216Z,59.1
2019-02-11T23:59:16.432Z,59.2
